createdAt,value
2018-08-30T00:02:02.720Z,84.35
2018-08-30T00:04:31.613Z,83.92
2018-08-30T00:07:00.551Z,84.24
2018-08-30T00:09:29.508Z,84.59
2018-08-30T00:11:58.375Z,84.62
2018-08-30T00:14:27.284Z,84.11
2018-08-30T00:16:56.184Z,84.41
2018-08-30T00:19:25.096Z,84.31
2018-08-30T00:21:54.858Z,84.34
2018-08-30T00:24:23.818Z,84.22
2018-08-30T00:26:52.728Z,83.94
2018-08-30T00:29:21.636Z,83.92
2018-08-30T00:31:50.686Z,83.68
2018-08-30T00:34:19.672Z,83.60
2018-08-30T00:36:48.808Z,83.45
2018-08-30T00:39:17.692Z,82.26
2018-08-30T00:41:46.572Z,80.98
2018-08-30T00:44:15.439Z,81.33
2018-08-30T00:46:44.364Z,81.45
2018-08-30T00:49:13.302Z,81.76
2018-08-30T00:51:42.228Z,81.28
2018-08-30T00:54:11.146Z,81.25
2018-08-30T00:56:40.049Z,80.75
2018-08-30T00:59:14.335Z,81.28
2018-08-30T01:01:48.656Z,80.18
2018-08-30T01:04:17.580Z,80.05
2018-08-30T01:06:46.444Z,79.99
2018-08-30T01:09:15.354Z,80.99
2018-08-30T01:11:44.272Z,80.31
2018-08-30T01:14:13.180Z,80.28
2018-08-30T01:16:42.173Z,80.17
2018-08-30T01:19:11.118Z,80.60
2018-08-30T01:21:40.192Z,80.22
2018-08-30T01:24:09.200Z,80.98
2018-08-30T01:26:38.199Z,80.55
2018-08-30T01:29:07.083Z,80.32
2018-08-30T01:31:36.107Z,79.92
2018-08-30T01:34:04.984Z,79.86
2018-08-30T01:36:33.980Z,79.75
2018-08-30T01:39:02.930Z,80.11
2018-08-30T01:41:31.884Z,79.58
2018-08-30T01:44:00.772Z,80.36
2018-08-30T01:46:29.733Z,80.07
2018-08-30T01:48:58.739Z,79.72
2018-08-30T01:51:27.724Z,79.53
2018-08-30T01:53:56.580Z,79.51
2018-08-30T01:56:25.540Z,79.71
2018-08-30T01:58:54.446Z,79.33
2018-08-30T02:01:23.436Z,79.14
2018-08-30T02:03:52.314Z,79.81
2018-08-30T02:06:21.336Z,79.56
2018-08-30T02:08:50.314Z,79.39
2018-08-30T02:11:19.408Z,79.65
2018-08-30T02:13:48.327Z,79.34
2018-08-30T02:16:17.220Z,79.30
2018-08-30T02:18:46.112Z,79.17
2018-08-30T02:21:15.070Z,79.08
2018-08-30T02:23:43.972Z,79.45
2018-08-30T02:26:12.891Z,79.27
2018-08-30T02:28:42.498Z,79.56
2018-08-30T02:31:11.454Z,79.53
2018-08-30T02:33:40.308Z,79.28
2018-08-30T02:36:09.270Z,79.68
2018-08-30T02:38:38.176Z,79.80
2018-08-30T02:41:07.124Z,79.50
2018-08-30T02:43:36.025Z,79.28
2018-08-30T02:46:05.120Z,79.61
2018-08-30T02:48:34.137Z,79.34
2018-08-30T02:51:03.049Z,79.57
2018-08-30T02:53:33.666Z,79.40
2018-08-30T02:56:02.594Z,79.12
2018-08-30T02:58:31.627Z,79.39
2018-08-30T03:01:00.634Z,79.61
2018-08-30T03:03:29.560Z,79.26
2018-08-30T03:05:58.505Z,79.32
2018-08-30T03:08:27.384Z,79.42
2018-08-30T03:10:56.280Z,79.66
2018-08-30T03:13:25.210Z,79.23
2018-08-30T03:15:54.128Z,78.87
2018-08-30T03:18:23.044Z,78.97
2018-08-30T03:20:51.937Z,77.91
2018-08-30T03:23:20.853Z,78.11
2018-08-30T03:25:49.810Z,78.08
2018-08-30T03:28:18.724Z,77.67
2018-08-30T03:30:47.666Z,76.80
2018-08-30T03:33:16.550Z,77.16
2018-08-30T03:35:45.476Z,76.69
2018-08-30T03:38:14.553Z,76.06
2018-08-30T03:40:43.854Z,75.54
2018-08-30T03:43:13.236Z,75.10
2018-08-30T03:45:42.128Z,73.90
2018-08-30T03:48:11.045Z,73.89
2018-08-30T03:50:39.956Z,73.32
2018-08-30T03:53:08.828Z,73.46
2018-08-30T03:55:37.718Z,72.66
2018-08-30T03:58:06.642Z,73.70
2018-08-30T04:00:35.624Z,73.13
2018-08-30T04:03:04.550Z,73.67
2018-08-30T04:05:33.433Z,73.10
2018-08-30T04:08:02.328Z,72.37
2018-08-30T04:10:31.242Z,72.23
2018-08-30T04:13:00.252Z,72.60
2018-08-30T04:15:29.272Z,72.66
2018-08-30T04:17:58.269Z,72.70
2018-08-30T04:20:27.266Z,72.06
2018-08-30T04:22:56.256Z,72.46
2018-08-30T04:25:25.150Z,71.78
2018-08-30T04:27:54.074Z,72.14
2018-08-30T04:30:23.058Z,72.62
2018-08-30T04:32:51.986Z,72.10
2018-08-30T04:35:20.956Z,72.08
2018-08-30T04:37:49.870Z,71.52
2018-08-30T04:40:18.860Z,71.27
2018-08-30T04:42:47.906Z,72.33
2018-08-30T04:45:16.750Z,70.91
2018-08-30T04:47:45.672Z,70.77
2018-08-30T04:50:14.651Z,71.03
2018-08-30T04:52:43.496Z,70.66
2018-08-30T04:55:12.415Z,70.29
2018-08-30T04:57:41.326Z,70.58
2018-08-30T05:00:10.353Z,70.21
2018-08-30T05:02:39.490Z,70.40
2018-08-30T05:05:08.402Z,70.58
2018-08-30T05:07:37.313Z,70.25
2018-08-30T05:10:06.570Z,71.37
2018-08-30T05:12:35.458Z,70.52
2018-08-30T05:15:04.461Z,70.27
2018-08-30T05:17:33.382Z,70.34
2018-08-30T05:20:02.286Z,70.04
2018-08-30T05:22:31.253Z,69.80
2018-08-30T05:25:00.152Z,69.26
2018-08-30T05:27:29.079Z,69.17
2018-08-30T05:29:58.113Z,68.79
2018-08-30T05:32:27.037Z,69.13
2018-08-30T05:34:55.955Z,69.83
2018-08-30T05:37:25.009Z,68.63
2018-08-30T05:39:53.947Z,68.57
2018-08-30T05:42:22.853Z,68.60
2018-08-30T05:44:57.895Z,68.05
2018-08-30T05:47:26.871Z,68.42
2018-08-30T05:49:55.837Z,68.11
2018-08-30T05:52:24.801Z,66.83
2018-08-30T05:54:53.731Z,66.71
2018-08-30T05:57:22.743Z,67.07
2018-08-30T05:59:51.623Z,67.25
2018-08-30T06:02:20.591Z,66.64
2018-08-30T06:04:49.506Z,66.83
2018-08-30T06:07:18.582Z,66.83
2018-08-30T06:09:47.469Z,66.50
2018-08-30T06:12:16.493Z,66.56
2018-08-30T06:14:45.436Z,66.47
2018-08-30T06:17:14.367Z,66.59
2018-08-30T06:19:43.461Z,65.88
2018-08-30T06:22:12.359Z,65.88
2018-08-30T06:24:41.374Z,65.38
2018-08-30T06:27:10.375Z,65.00
2018-08-30T06:29:39.355Z,65.60
2018-08-30T06:32:08.271Z,64.74
2018-08-30T06:34:37.162Z,64.60
2018-08-30T06:37:06.213Z,64.36
2018-08-30T06:39:40.867Z,64.03
2018-08-30T06:42:09.875Z,64.84
2018-08-30T06:44:38.780Z,64.38
2018-08-30T06:47:08.701Z,64.25
2018-08-30T06:49:37.647Z,63.81
2018-08-30T06:52:06.628Z,63.17
2018-08-30T06:54:35.610Z,62.58
2018-08-30T06:57:04.627Z,62.28
2018-08-30T06:59:33.530Z,61.96
2018-08-30T07:02:03.683Z,61.43
2018-08-30T07:04:32.583Z,61.61
2018-08-30T07:07:01.525Z,61.28
2018-08-30T07:09:30.587Z,60.46
2018-08-30T07:12:03.153Z,60.48
2018-08-30T07:14:32.133Z,59.12
2018-08-30T07:17:01.038Z,57.79
2018-08-30T07:19:30.087Z,56.77
2018-08-30T07:21:59.222Z,56.20
2018-08-30T07:24:31.303Z,55.55
2018-08-30T07:27:01.223Z,54.13
2018-08-30T07:29:30.276Z,54.48
2018-08-30T07:31:59.327Z,54.02
2018-08-30T07:34:28.421Z,54.60
2018-08-30T07:36:57.324Z,53.78
2018-08-30T07:39:26.329Z,53.33
2018-08-30T07:41:56.382Z,52.82
2018-08-30T07:44:25.376Z,52.85
2018-08-30T07:46:54.317Z,53.31
2018-08-30T07:49:23.311Z,53.67
2018-08-30T07:51:52.369Z,54.23
2018-08-30T07:54:21.463Z,54.23
2018-08-30T07:56:51.668Z,55.38
2018-08-30T07:59:21.655Z,56.35
2018-08-30T08:01:50.895Z,56.28
2018-08-30T08:04:20.153Z,56.94
2018-08-30T08:06:49.256Z,57.63
2018-08-30T08:09:18.420Z,56.44
2018-08-30T08:11:47.776Z,56.41
2018-08-30T08:14:17.073Z,56.23
2018-08-30T08:16:46.420Z,55.94
2018-08-30T08:19:15.709Z,55.19
2018-08-30T08:21:44.908Z,54.81
2018-08-30T08:24:14.211Z,55.15
2018-08-30T08:26:43.376Z,53.92
2018-08-30T08:29:12.599Z,55.55
2018-08-30T08:31:41.807Z,55.27
2018-08-30T08:34:11.917Z,55.65
2018-08-30T08:36:41.305Z,55.62
2018-08-30T08:39:10.727Z,55.17
2018-08-30T08:41:39.951Z,54.70
2018-08-30T08:44:09.316Z,54.71
2018-08-30T08:46:38.427Z,54.80
2018-08-30T08:49:07.808Z,53.97
2018-08-30T08:51:37.077Z,54.93
2018-08-30T08:54:06.414Z,54.56
2018-08-30T08:56:35.499Z,55.01
2018-08-30T08:59:04.599Z,52.95
2018-08-30T09:01:33.646Z,53.47
2018-08-30T09:04:02.704Z,53.58
2018-08-30T09:06:31.982Z,54.32
2018-08-30T09:09:01.129Z,52.16
2018-08-30T09:11:30.289Z,51.81
2018-08-30T09:13:59.560Z,52.46
2018-08-30T09:16:28.839Z,53.05
2018-08-30T09:18:58.155Z,52.85
2018-08-30T09:21:27.423Z,53.31
2018-08-30T09:23:56.687Z,54.21
2018-08-30T09:26:25.759Z,53.48
2018-08-30T09:28:54.827Z,53.56
2018-08-30T09:31:24.260Z,54.15
2018-08-30T09:33:53.437Z,55.10
2018-08-30T09:36:22.803Z,55.87
2018-08-30T09:38:52.022Z,55.57
2018-08-30T09:41:21.289Z,56.20
2018-08-30T09:43:51.441Z,56.57
2018-08-30T09:46:20.834Z,55.26
2018-08-30T09:48:50.631Z,56.21
2018-08-30T09:51:20.056Z,54.32
2018-08-30T09:53:49.273Z,54.18
2018-08-30T09:56:18.426Z,53.50
2018-08-30T09:58:47.537Z,53.61
2018-08-30T10:01:21.775Z,53.69
2018-08-30T10:03:51.076Z,53.86
2018-08-30T10:06:20.545Z,53.49
2018-08-30T10:08:49.773Z,52.80
2018-08-30T10:11:18.943Z,51.82
2018-08-30T10:13:48.160Z,52.27
2018-08-30T10:16:17.497Z,52.85
2018-08-30T10:18:46.687Z,52.76
2018-08-30T10:21:15.909Z,53.11
2018-08-30T10:23:45.050Z,53.54
2018-08-30T10:26:14.146Z,53.69
2018-08-30T10:28:44.452Z,53.51
2018-08-30T10:31:13.441Z,53.83
2018-08-30T10:33:42.720Z,52.82
2018-08-30T10:36:11.916Z,52.58
2018-08-30T10:38:41.494Z,51.82
2018-08-30T10:43:48.863Z,52.36
2018-08-30T10:46:18.068Z,52.57
2018-08-30T10:48:47.093Z,51.49
2018-08-30T10:51:16.236Z,51.48
2018-08-30T10:53:45.167Z,49.76
2018-08-30T10:56:14.248Z,50.14
2018-08-30T10:58:43.219Z,50.51
2018-08-30T11:01:12.205Z,51.42
2018-08-30T11:03:41.270Z,51.62
2018-08-30T11:06:10.225Z,52.35
2018-08-30T11:08:39.185Z,53.15
2018-08-30T11:11:08.105Z,52.92
2018-08-30T11:13:37.090Z,53.48
2018-08-30T11:16:08.315Z,53.62
2018-08-30T11:18:37.329Z,53.76
2018-08-30T11:21:06.416Z,52.12
2018-08-30T11:23:35.447Z,50.77
2018-08-30T11:26:04.511Z,51.05
2018-08-30T11:28:33.433Z,51.12
2018-08-30T11:31:02.345Z,51.17
2018-08-30T11:33:31.341Z,50.62
2018-08-30T11:36:00.313Z,51.40
2018-08-30T11:38:29.344Z,51.75
2018-08-30T11:40:58.270Z,50.57
2018-08-30T11:43:32.628Z,50.66
2018-08-30T11:46:01.720Z,50.07
2018-08-30T11:48:30.728Z,49.50
2018-08-30T11:51:00.162Z,49.88
2018-08-30T11:53:29.412Z,50.89
2018-08-30T11:55:58.620Z,51.44
2018-08-30T11:58:27.847Z,50.42
2018-08-30T12:00:57.133Z,51.01
2018-08-30T12:03:26.123Z,50.95
2018-08-30T12:05:55.262Z,51.91
2018-08-30T12:08:24.986Z,51.32
2018-08-30T12:10:54.273Z,50.83
2018-08-30T12:13:23.453Z,50.78
2018-08-30T12:15:52.691Z,50.04
2018-08-30T12:18:21.996Z,49.64
2018-08-30T12:20:51.331Z,50.66
2018-08-30T12:23:20.462Z,49.77
2018-08-30T12:25:49.772Z,49.83
2018-08-30T12:28:19.334Z,49.83
2018-08-30T12:30:48.507Z,50.12
2018-08-30T12:33:17.847Z,49.63
2018-08-30T12:35:47.147Z,49.86
2018-08-30T12:38:16.279Z,48.01
2018-08-30T12:40:45.441Z,48.39
2018-08-30T12:43:14.691Z,49.04
2018-08-30T12:45:43.921Z,49.29
2018-08-30T12:48:13.183Z,47.06
2018-08-30T12:50:42.681Z,46.21
2018-08-30T12:53:11.509Z,45.64
2018-08-30T12:55:40.364Z,45.93
2018-08-30T12:58:09.326Z,45.70
2018-08-30T13:00:38.421Z,44.50
2018-08-30T13:03:07.662Z,46.04
2018-08-30T13:05:36.957Z,46.00
2018-08-30T13:08:05.737Z,45.31
2018-08-30T13:10:34.791Z,45.04
2018-08-30T13:13:03.895Z,46.72
2018-08-30T13:15:33.231Z,46.07
2018-08-30T13:18:01.902Z,46.25
2018-08-30T13:20:30.810Z,44.41
2018-08-30T13:22:59.752Z,46.23
2018-08-30T13:25:29.058Z,46.96
2018-08-30T13:27:58.011Z,47.27
2018-08-30T13:30:27.278Z,48.21
2018-08-30T13:32:56.238Z,47.88
2018-08-30T13:35:25.484Z,47.61
2018-08-30T13:37:54.520Z,48.20
2018-08-30T13:40:23.477Z,48.18
2018-08-30T13:42:52.451Z,47.63
2018-08-30T13:45:21.366Z,47.38
2018-08-30T13:47:50.309Z,48.18
2018-08-30T13:50:19.178Z,48.90
2018-08-30T13:52:48.309Z,48.37
2018-08-30T13:55:17.261Z,48.34
2018-08-30T13:57:46.092Z,48.42
2018-08-30T14:00:15.361Z,49.33
2018-08-30T14:02:44.050Z,50.24
2018-08-30T14:05:13.060Z,50.14
2018-08-30T14:07:41.902Z,48.69
2018-08-30T14:10:10.685Z,47.78
2018-08-30T14:12:39.777Z,48.37
2018-08-30T14:15:08.917Z,47.98
2018-08-30T14:17:37.332Z,49.23
2018-08-30T14:20:06.674Z,49.07
2018-08-30T14:22:35.615Z,48.91
2018-08-30T14:25:04.680Z,49.29
2018-08-30T14:27:33.559Z,50.37
2018-08-30T14:30:02.576Z,51.16
2018-08-30T14:32:31.577Z,51.69
2018-08-30T14:35:00.561Z,52.48
2018-08-30T14:37:29.602Z,52.61
2018-08-30T14:39:58.535Z,51.88
2018-08-30T14:42:27.515Z,52.04
2018-08-30T14:44:56.524Z,52.29
2018-08-30T14:47:25.545Z,50.11
2018-08-30T14:49:54.531Z,51.84
2018-08-30T14:52:23.397Z,50.22
2018-08-30T14:54:52.332Z,49.37
2018-08-30T14:57:21.351Z,49.87
2018-08-30T14:59:50.314Z,50.98
2018-08-30T15:02:19.310Z,51.80
2018-08-30T15:04:48.215Z,50.66
2018-08-30T15:07:20.136Z,51.19
2018-08-30T15:09:49.117Z,51.85
2018-08-30T15:12:18.049Z,50.99
2018-08-30T15:14:47.198Z,50.76
2018-08-30T15:17:16.269Z,51.20
2018-08-30T15:19:45.277Z,50.86
2018-08-30T15:22:14.205Z,51.41
2018-08-30T15:24:43.246Z,51.44
2018-08-30T15:27:12.334Z,50.86
2018-08-30T15:29:41.270Z,51.12
2018-08-30T15:32:10.296Z,51.14
2018-08-30T15:34:39.220Z,50.28
2018-08-30T15:37:08.256Z,50.63
2018-08-30T15:39:37.237Z,51.14
2018-08-30T15:42:06.362Z,51.06
2018-08-30T15:44:35.488Z,51.46
2018-08-30T15:47:04.663Z,50.68
2018-08-30T15:49:33.653Z,50.09
2018-08-30T15:52:02.892Z,50.20
2018-08-30T15:54:31.889Z,50.16
2018-08-30T15:57:00.876Z,49.74
2018-08-30T15:59:30.036Z,49.98
2018-08-30T16:01:59.001Z,50.58
2018-08-30T16:04:28.134Z,49.55
2018-08-30T16:06:57.179Z,50.39
2018-08-30T16:09:26.138Z,50.28
2018-08-30T16:11:55.875Z,50.13
2018-08-30T16:14:24.792Z,49.36
2018-08-30T16:16:53.768Z,49.84
2018-08-30T16:19:22.685Z,49.93
2018-08-30T16:21:51.618Z,50.03
2018-08-30T16:24:20.642Z,50.95
2018-08-30T16:26:50.807Z,50.69
2018-08-30T16:29:19.915Z,50.41
2018-08-30T16:31:48.809Z,50.57
2018-08-30T16:34:17.781Z,50.08
2018-08-30T16:36:46.727Z,49.42
2018-08-30T16:39:15.820Z,50.33
2018-08-30T16:41:44.886Z,50.84
2018-08-30T16:44:13.889Z,51.52
2018-08-30T16:46:43.948Z,52.01
2018-08-30T16:49:12.882Z,52.33
2018-08-30T16:51:41.843Z,52.17
2018-08-30T16:54:10.940Z,52.00
2018-08-30T16:56:40.834Z,52.72
2018-08-30T16:59:09.875Z,52.16
2018-08-30T17:01:38.737Z,52.21
2018-08-30T17:04:07.789Z,52.49
2018-08-30T17:06:37.449Z,52.76
2018-08-30T17:09:07.416Z,51.93
2018-08-30T17:11:36.602Z,52.69
2018-08-30T17:14:05.681Z,53.13
2018-08-30T17:16:34.637Z,53.33
2018-08-30T17:19:15.255Z,52.76
2018-08-30T17:21:44.187Z,52.82
2018-08-30T17:26:50.670Z,52.94
2018-08-30T17:29:19.625Z,52.97
2018-08-30T17:31:49.289Z,53.24
2018-08-30T17:34:18.267Z,53.02
2018-08-30T17:36:47.319Z,53.28
2018-08-30T17:39:16.303Z,54.05
2018-08-30T17:41:45.139Z,54.32
2018-08-30T17:44:14.047Z,54.98
2018-08-30T17:46:43.987Z,55.17
2018-08-30T17:49:12.993Z,54.96
2018-08-30T17:51:41.983Z,55.13
2018-08-30T17:54:10.970Z,55.67
2018-08-30T17:56:39.877Z,55.20
2018-08-30T17:59:08.903Z,55.57
2018-08-30T18:01:39.007Z,54.93
2018-08-30T18:04:08.149Z,55.66
2018-08-30T18:06:37.185Z,56.30
2018-08-30T18:09:07.543Z,55.75
2018-08-30T18:11:37.067Z,55.53
2018-08-30T18:14:06.072Z,56.23
2018-08-30T18:16:35.057Z,56.47
2018-08-30T18:19:04.027Z,56.10
2018-08-30T18:21:33.089Z,56.62
2018-08-30T18:24:02.077Z,56.66
2018-08-30T18:26:31.017Z,56.71
2018-08-30T18:28:59.934Z,57.22
2018-08-30T18:31:28.875Z,57.05
2018-08-30T18:33:57.801Z,57.41
2018-08-30T18:36:26.711Z,57.25
2018-08-30T18:38:55.741Z,57.98
2018-08-30T18:41:25.904Z,57.89
2018-08-30T18:43:55.025Z,57.47
2018-08-30T18:46:23.949Z,58.01
2018-08-30T18:48:52.897Z,57.83
2018-08-30T18:51:21.838Z,58.36
2018-08-30T18:53:50.772Z,58.91
2018-08-30T18:56:19.820Z,58.75
2018-08-30T18:58:48.889Z,59.02
2018-08-30T19:01:17.815Z,58.84
2018-08-30T19:03:46.979Z,58.63
2018-08-30T19:06:16.049Z,58.65
2018-08-30T19:08:45.017Z,58.74
2018-08-30T19:11:14.045Z,58.60
2018-08-30T19:13:43.033Z,58.86
2018-08-30T19:16:17.505Z,58.50
2018-08-30T19:18:51.661Z,58.50
2018-08-30T19:21:20.617Z,58.69
2018-08-30T19:23:49.579Z,58.85
2018-08-30T19:26:18.882Z,59.34
2018-08-30T19:28:47.907Z,59.42
2018-08-30T19:31:17.138Z,59.48
2018-08-30T19:33:46.126Z,59.59
2018-08-30T19:36:20.478Z,59.90
2018-08-30T19:38:49.635Z,59.65
2018-08-30T19:41:19.965Z,59.66
2018-08-30T19:43:50.216Z,60.41
2018-08-30T19:46:19.674Z,59.83
2018-08-30T19:48:48.623Z,60.25
2018-08-30T19:51:17.560Z,60.11
2018-08-30T19:53:46.620Z,60.35
2018-08-30T19:56:15.888Z,60.11
2018-08-30T19:58:44.850Z,59.77
2018-08-30T20:01:13.827Z,60.22
2018-08-30T20:03:42.778Z,59.75
2018-08-30T20:06:11.684Z,60.08
2018-08-30T20:08:40.728Z,59.74
2018-08-30T20:11:09.740Z,59.50
2018-08-30T20:13:39.731Z,59.67
2018-08-30T20:16:08.712Z,60.30
2018-08-30T20:18:37.635Z,60.88
2018-08-30T20:21:06.655Z,60.64
2018-08-30T20:23:35.583Z,60.42
2018-08-30T20:26:04.550Z,60.60
2018-08-30T20:28:33.716Z,60.55
2018-08-30T20:31:02.616Z,60.67
2018-08-30T20:33:31.539Z,60.61
2018-08-30T20:36:00.822Z,60.34
2018-08-30T20:38:29.917Z,60.87
2018-08-30T20:40:58.914Z,60.37
2018-08-30T20:43:27.861Z,60.37
2018-08-30T20:45:56.832Z,60.02
2018-08-30T20:48:25.820Z,60.59
2018-08-30T20:50:54.828Z,60.26
2018-08-30T20:53:23.795Z,60.45
2018-08-30T20:55:52.829Z,60.79
2018-08-30T20:58:21.945Z,60.98
2018-08-30T21:00:51.252Z,60.56
2018-08-30T21:03:20.357Z,61.18
2018-08-30T21:05:49.339Z,60.45
2018-08-30T21:08:18.372Z,61.11
2018-08-30T21:10:47.372Z,60.53
2018-08-30T21:13:16.431Z,60.80
2018-08-30T21:15:45.498Z,61.00
2018-08-30T21:18:14.488Z,60.76
2018-08-30T21:20:43.501Z,60.97
2018-08-30T21:23:12.472Z,61.13
2018-08-30T21:25:41.567Z,61.32
2018-08-30T21:28:10.646Z,61.65
2018-08-30T21:30:39.585Z,61.28
2018-08-30T21:33:09.279Z,60.58
2018-08-30T21:35:38.282Z,60.26
2018-08-30T21:38:07.364Z,59.23
2018-08-30T21:40:36.505Z,59.52
2018-08-30T21:43:05.596Z,59.43
2018-08-30T21:45:34.657Z,59.29
2018-08-30T21:48:03.724Z,59.36
2018-08-30T21:50:32.707Z,59.29
2018-08-30T21:53:01.779Z,59.40
2018-08-30T21:55:30.745Z,59.46
2018-08-30T21:57:59.704Z,60.03
2018-08-30T22:00:29.146Z,60.16
2018-08-30T22:02:58.069Z,59.35
2018-08-30T22:05:27.115Z,59.48
2018-08-30T22:07:56.029Z,59.76
2018-08-30T22:10:25.001Z,59.39
2018-08-30T22:12:54.104Z,59.45
2018-08-30T22:15:23.068Z,59.99
2018-08-30T22:17:52.037Z,59.56
2018-08-30T22:20:21.087Z,60.07
2018-08-30T22:22:50.148Z,59.88
2018-08-30T22:25:19.100Z,59.96
2018-08-30T22:27:48.085Z,60.91
2018-08-30T22:30:17.104Z,60.86
2018-08-30T22:32:46.154Z,61.00
2018-08-30T22:35:15.179Z,61.45
2018-08-30T22:37:44.165Z,61.41
2018-08-30T22:40:13.224Z,62.10
2018-08-30T22:42:42.167Z,62.62
2018-08-30T22:45:11.160Z,62.86
2018-08-30T22:47:40.140Z,63.08
2018-08-30T22:50:09.124Z,64.45
2018-08-30T22:52:38.067Z,64.11
2018-08-30T22:55:07.056Z,64.19
2018-08-30T22:57:36.174Z,64.42
2018-08-30T23:00:05.198Z,64.78
2018-08-30T23:02:34.188Z,65.58
2018-08-30T23:05:03.255Z,65.58
2018-08-30T23:07:32.176Z,65.04
2018-08-30T23:10:01.196Z,65.62
2018-08-30T23:12:30.112Z,65.65
2018-08-30T23:14:59.071Z,65.89
2018-08-30T23:17:28.341Z,65.35
2018-08-30T23:19:57.323Z,64.89
2018-08-30T23:22:26.267Z,64.96
2018-08-30T23:24:55.195Z,64.16
2018-08-30T23:27:24.215Z,64.11
2018-08-30T23:29:53.136Z,64.11
2018-08-30T23:32:21.999Z,64.19
2018-08-30T23:34:50.889Z,65.20
2018-08-30T23:37:19.898Z,64.90
2018-08-30T23:39:48.896Z,64.71
2018-08-30T23:42:17.880Z,64.80
2018-08-30T23:44:46.792Z,64.85
2018-08-30T23:47:15.697Z,64.90
2018-08-30T23:49:44.610Z,64.67
2018-08-30T23:52:13.726Z,64.87
2018-08-30T23:54:42.626Z,65.13
2018-08-30T23:57:11.639Z,65.22
2018-08-30T23:59:51.947Z,65.45
